sensor_id;sensor_type;location;lat;lon;timestamp;pressure;altitude;pressure_sealevel;temperature
60731;BMP280;46580;52.114;11.674;2022-12-05T00:01:26;101258.56;;;2.69
60731;BMP280;46580;52.114;11.674;2022-12-05T00:03:53;101256.78;;;2.71
60731;BMP280;46580;52.114;11.674;2022-12-05T00:06:20;101255.91;;;2.72
60731;BMP280;46580;52.114;11.674;2022-12-05T00:08:47;101250.03;;;2.70
60731;BMP280;46580;52.114;11.674;2022-12-05T00:11:14;101250.75;;;2.73
60731;BMP280;46580;52.114;11.674;2022-12-05T00:13:42;101245.69;;;2.73
60731;BMP280;46580;52.114;11.674;2022-12-05T00:16:13;101241.69;;;2.66
60731;BMP280;46580;52.114;11.674;2022-12-05T00:18:39;101248.28;;;2.72
60731;BMP280;46580;52.114;11.674;2022-12-05T00:21:05;101243.22;;;2.70
60731;BMP280;46580;52.114;11.674;2022-12-05T00:23:32;101241.81;;;2.63
60731;BMP280;46580;52.114;11.674;2022-12-05T00:26:01;101238.38;;;2.64
60731;BMP280;46580;52.114;11.674;2022-12-05T00:28:27;101241.69;;;2.66
60731;BMP280;46580;52.114;11.674;2022-12-05T00:30:53;101242.53;;;2.67
60731;BMP280;46580;52.114;11.674;2022-12-05T00:33:18;101241.59;;;2.69
60731;BMP280;46580;52.114;11.674;2022-12-05T00:35:44;101244.19;;;2.68
60731;BMP280;46580;52.114;11.674;2022-12-05T00:38:09;101239.94;;;2.68
60731;BMP280;46580;52.114;11.674;2022-12-05T00:40:36;101244.19;;;2.68
60731;BMP280;46580;52.114;11.674;2022-12-05T00:43:01;101241.69;;;2.66
60731;BMP280;46580;52.114;11.674;2022-12-05T00:45:26;101234.72;;;2.71
60731;BMP280;46580;52.114;11.674;2022-12-05T00:47:52;101230.94;;;2.60
60731;BMP280;46580;52.114;11.674;2022-12-05T00:50:17;101232.53;;;2.62
60731;BMP280;46580;52.114;11.674;2022-12-05T00:52:44;101235.50;;;2.51
60731;BMP280;46580;52.114;11.674;2022-12-05T00:55:10;101225.78;;;2.84
60731;BMP280;46580;52.114;11.674;2022-12-05T00:57:35;101227.56;;;2.82
60731;BMP280;46580;52.114;11.674;2022-12-05T01:00:01;101239.25;;;2.86
60731;BMP280;46580;52.114;11.674;2022-12-05T01:02:26;101228.53;;;2.78
60731;BMP280;46580;52.114;11.674;2022-12-05T01:04:51;101238.69;;;2.78
60731;BMP280;46580;52.114;11.674;2022-12-05T01:07:17;101239.31;;;2.84
60731;BMP280;46580;52.114;11.674;2022-12-05T01:09:43;101244.34;;;2.86
60731;BMP280;46580;52.114;11.674;2022-12-05T01:12:08;101235.22;;;2.80
60731;BMP280;46580;52.114;11.674;2022-12-05T01:14:34;101235.41;;;2.76
60731;BMP280;46580;52.114;11.674;2022-12-05T01:16:59;101236.84;;;2.83
60731;BMP280;46580;52.114;11.674;2022-12-05T01:19:28;101233.75;;;2.75
60731;BMP280;46580;52.114;11.674;2022-12-05T01:21:54;101227.56;;;2.82
60731;BMP280;46580;52.114;11.674;2022-12-05T01:24:20;101225.66;;;2.87
60731;BMP280;46580;52.114;11.674;2022-12-05T01:26:46;101219.06;;;2.83
60731;BMP280;46580;52.114;11.674;2022-12-05T01:29:14;101223.41;;;2.79
60731;BMP280;46580;52.114;11.674;2022-12-05T01:31:40;101228.53;;;2.78
60731;BMP280;46580;52.114;11.674;2022-12-05T01:34:13;101229.22;;;2.83
60731;BMP280;46580;52.114;11.674;2022-12-05T01:36:39;101228.72;;;2.74
60731;BMP280;46580;52.114;11.674;2022-12-05T01:39:06;101233.84;;;2.72
60731;BMP280;46580;52.114;11.674;2022-12-05T01:41:35;101238.38;;;2.64
60731;BMP280;46580;52.114;11.674;2022-12-05T01:46:53;101243.47;;;2.64
60731;BMP280;46580;52.114;11.674;2022-12-05T01:51:52;101231.75;;;2.83
60731;BMP280;46580;52.114;11.674;2022-12-05T01:54:21;101239.50;;;2.80
60731;BMP280;46580;52.114;11.674;2022-12-05T01:56:54;101239.38;;;2.83
60731;BMP280;46580;52.114;11.674;2022-12-05T01:59:20;101233.53;;;2.81
60731;BMP280;46580;52.114;11.674;2022-12-05T02:01:47;101228.81;;;2.71
60731;BMP280;46580;52.114;11.674;2022-12-05T02:04:12;101232.50;;;2.85
60731;BMP280;46580;52.114;11.674;2022-12-05T02:06:38;101226.22;;;2.72
60731;BMP280;46580;52.114;11.674;2022-12-05T02:09:03;101233.25;;;2.88
60731;BMP280;46580;52.114;11.674;2022-12-05T02:11:30;101233.09;;;2.91
60731;BMP280;46580;52.114;11.674;2022-12-05T02:17:04;101242.22;;;2.96
60731;BMP280;46580;52.114;11.674;2022-12-05T02:19:53;101238.94;;;2.95
60731;BMP280;46580;52.114;11.674;2022-12-05T02:22:32;101237.97;;;2.76
60731;BMP280;46580;52.114;11.674;2022-12-05T02:30:48;101237.13;;;2.96
60731;BMP280;46580;52.114;11.674;2022-12-05T02:33:25;101235.84;;;2.87
60731;BMP280;46580;52.114;11.674;2022-12-05T02:36:05;101233.81;;;2.74
60731;BMP280;46580;52.114;11.674;2022-12-05T02:38:52;101233.34;;;2.85
60731;BMP280;46580;52.114;11.674;2022-12-05T02:41:39;101236.94;;;2.80
60731;BMP280;46580;52.114;11.674;2022-12-05T02:44:17;101234.22;;;2.84
60731;BMP280;46580;52.114;11.674;2022-12-05T02:46:44;101233.66;;;2.77
60731;BMP280;46580;52.114;11.674;2022-12-05T02:49:15;101232.03;;;2.96
60731;BMP280;46580;52.114;11.674;2022-12-05T02:51:50;101225.13;;;2.79
60731;BMP280;46580;52.114;11.674;2022-12-05T02:54:19;101215.84;;;2.78
60731;BMP280;46580;52.114;11.674;2022-12-05T02:56:46;101216.63;;;2.80
60731;BMP280;46580;52.114;11.674;2022-12-05T02:59:12;101212.41;;;2.79
60731;BMP280;46580;52.114;11.674;2022-12-05T03:01:37;101214.66;;;2.86
60731;BMP280;46580;52.114;11.674;2022-12-05T03:04:05;101211.28;;;2.86
60731;BMP280;46580;52.114;11.674;2022-12-05T03:06:35;101207.88;;;2.87
60731;BMP280;46580;52.114;11.674;2022-12-05T03:09:15;101213.13;;;2.82
60731;BMP280;46580;52.114;11.674;2022-12-05T03:11:46;101209.31;;;2.71
60731;BMP280;46580;52.114;11.674;2022-12-05T03:14:25;101208.53;;;2.92
60731;BMP280;46580;52.114;11.674;2022-12-05T03:16:54;101209.81;;;2.80
60731;BMP280;46580;52.114;11.674;2022-12-05T03:21:52;101206.03;;;2.69
60731;BMP280;46580;52.114;11.674;2022-12-05T03:24:21;101215.47;;;2.66
60731;BMP280;46580;52.114;11.674;2022-12-05T03:29:23;101211.09;;;2.69
60731;BMP280;46580;52.114;11.674;2022-12-05T03:32:29;101216.72;;;2.77
60731;BMP280;46580;52.114;11.674;2022-12-05T03:43:15;101214.84;;;2.59
60731;BMP280;46580;52.114;11.674;2022-12-05T03:45:54;101216.38;;;2.63
60731;BMP280;46580;52.114;11.674;2022-12-05T03:48:29;101218.19;;;2.61
60731;BMP280;46580;52.114;11.674;2022-12-05T03:50:58;101211.44;;;2.60
60731;BMP280;46580;52.114;11.674;2022-12-05T03:53:50;101216.63;;;2.58
60731;BMP280;46580;52.114;11.674;2022-12-05T03:56:21;101214.84;;;2.59
60731;BMP280;46580;52.114;11.674;2022-12-05T03:58:54;101224.94;;;2.62
60731;BMP280;46580;52.114;11.674;2022-12-05T04:01:22;101221.69;;;2.58
60731;BMP280;46580;52.114;11.674;2022-12-05T04:04:03;101215.38;;;2.69
60731;BMP280;46580;52.114;11.674;2022-12-05T04:06:33;101228.72;;;2.74
60731;BMP280;46580;52.114;11.674;2022-12-05T04:09:05;101230.34;;;2.76
60731;BMP280;46580;52.114;11.674;2022-12-05T04:11:34;101227.97;;;2.70
60731;BMP280;46580;52.114;11.674;2022-12-05T04:14:25;101223.13;;;2.64
60731;BMP280;46580;52.114;11.674;2022-12-05T04:17:27;101225.03;;;2.59
60731;BMP280;46580;52.114;11.674;2022-12-05T04:20:05;101222.06;;;2.70
60731;BMP280;46580;52.114;11.674;2022-12-05T04:22:53;101225.84;;;2.60
60731;BMP280;46580;52.114;11.674;2022-12-05T04:25:19;101227.59;;;2.58
60731;BMP280;46580;52.114;11.674;2022-12-05T04:36:09;101222.53;;;2.58
60731;BMP280;46580;52.114;11.674;2022-12-05T04:38:44;101219.94;;;2.59
60731;BMP280;46580;52.114;11.674;2022-12-05T04:41:21;101227.59;;;2.58
60731;BMP280;46580;52.114;11.674;2022-12-05T04:43:48;101220.88;;;2.57
60731;BMP280;46580;52.114;11.674;2022-12-05T04:46:17;101211.53;;;2.58
60731;BMP280;46580;52.114;11.674;2022-12-05T04:48:45;101215.78;;;2.57
60731;BMP280;46580;52.114;11.674;2022-12-05T04:51:16;101218.00;;;2.66
60731;BMP280;46580;52.114;11.674;2022-12-05T04:53:43;101221.59;;;2.60
60731;BMP280;46580;52.114;11.674;2022-12-05T04:56:11;101222.47;;;2.59
60731;BMP280;46580;52.114;11.674;2022-12-05T04:58:38;101230.06;;;2.61
60731;BMP280;46580;52.114;11.674;2022-12-05T05:04:08;101225.84;;;2.60
60731;BMP280;46580;52.114;11.674;2022-12-05T05:06:37;101218.06;;;2.64
60731;BMP280;46580;52.114;11.674;2022-12-05T05:09:03;101223.25;;;2.61
60731;BMP280;46580;52.114;11.674;2022-12-05T05:11:31;101223.25;;;2.61
60731;BMP280;46580;52.114;11.674;2022-12-05T05:13:57;101223.09;;;2.66
60731;BMP280;46580;52.114;11.674;2022-12-05T05:16:27;101221.41;;;2.65
60731;BMP280;46580;52.114;11.674;2022-12-05T05:18:53;101218.94;;;2.63
60731;BMP280;46580;52.114;11.674;2022-12-05T05:23:45;101215.50;;;2.64
60731;BMP280;46580;52.114;11.674;2022-12-05T05:26:12;101217.94;;;2.67
60731;BMP280;46580;52.114;11.674;2022-12-05T05:28:37;101222.16;;;2.68
60731;BMP280;46580;52.114;11.674;2022-12-05T05:31:04;101225.53;;;2.69
60731;BMP280;46580;52.114;11.674;2022-12-05T05:33:31;101224.53;;;2.73
60731;BMP280;46580;52.114;11.674;2022-12-05T05:36:01;101222.03;;;2.71
60731;BMP280;46580;52.114;11.674;2022-12-05T05:38:27;101227.16;;;2.70
60731;BMP280;46580;52.114;11.674;2022-12-05T05:40:52;101228.13;;;2.67
60731;BMP280;46580;52.114;11.674;2022-12-05T05:43:18;101238.16;;;2.70
60731;BMP280;46580;52.114;11.674;2022-12-05T05:45:43;101229.66;;;2.71
60731;BMP280;46580;52.114;11.674;2022-12-05T05:48:09;101226.28;;;2.71
60731;BMP280;46580;52.114;11.674;2022-12-05T05:50:35;101243.22;;;2.70
60731;BMP280;46580;52.114;11.674;2022-12-05T05:53:00;101240.50;;;2.76
60731;BMP280;46580;52.114;11.674;2022-12-05T05:55:26;101242.31;;;2.73
60731;BMP280;46580;52.114;11.674;2022-12-05T05:57:51;101252.97;;;2.82
60731;BMP280;46580;52.114;11.674;2022-12-05T06:00:17;101244.56;;;2.80
60731;BMP280;46580;52.114;11.674;2022-12-05T06:02:43;101237.97;;;2.76
60731;BMP280;46580;52.114;11.674;2022-12-05T06:05:08;101246.47;;;2.75
60731;BMP280;46580;52.114;11.674;2022-12-05T06:07:34;101241.28;;;2.77
60731;BMP280;46580;52.114;11.674;2022-12-05T06:09:59;101235.28;;;2.79
60731;BMP280;46580;52.114;11.674;2022-12-05T06:12:24;101247.28;;;2.76
60731;BMP280;46580;52.114;11.674;2022-12-05T06:14:50;101234.69;;;2.73
60731;BMP280;46580;52.114;11.674;2022-12-05T06:17:16;101241.25;;;2.78
60731;BMP280;46580;52.114;11.674;2022-12-05T06:19:42;101252.25;;;2.78
60731;BMP280;46580;52.114;11.674;2022-12-05T06:22:07;101253.94;;;2.78
60731;BMP280;46580;52.114;11.674;2022-12-05T06:24:33;101248.13;;;2.76
60731;BMP280;46580;52.114;11.674;2022-12-05T06:26:58;101246.47;;;2.75
60731;BMP280;46580;52.114;11.674;2022-12-05T06:29:24;101255.75;;;2.76
60731;BMP280;46580;52.114;11.674;2022-12-05T06:31:50;101246.22;;;2.81
60731;BMP280;46580;52.114;11.674;2022-12-05T06:34:16;101242.81;;;2.82
60731;BMP280;46580;52.114;11.674;2022-12-05T06:36:42;101247.00;;;2.83
60731;BMP280;46580;52.114;11.674;2022-12-05T06:39:07;101245.97;;;3.09
60731;BMP280;46580;52.114;11.674;2022-12-05T06:41:33;101256.81;;;2.92
60731;BMP280;46580;52.114;11.674;2022-12-05T06:43:59;101253.72;;;2.84
60731;BMP280;46580;52.114;11.674;2022-12-05T06:46:25;101263.16;;;2.82
60731;BMP280;46580;52.114;11.674;2022-12-05T06:48:52;101265.69;;;2.82
60731;BMP280;46580;52.114;11.674;2022-12-05T06:51:18;101262.31;;;2.81
60731;BMP280;46580;52.114;11.674;2022-12-05T06:53:44;101268.22;;;2.82
60731;BMP280;46580;52.114;11.674;2022-12-05T06:56:14;101268.22;;;2.82
60731;BMP280;46580;52.114;11.674;2022-12-05T06:58:45;101266.56;;;2.81
60731;BMP280;46580;52.114;11.674;2022-12-05T07:01:17;101260.31;;;2.89
60731;BMP280;46580;52.114;11.674;2022-12-05T07:04:08;101271.53;;;2.84
60731;BMP280;46580;52.114;11.674;2022-12-05T07:06:34;101270.78;;;2.82
60731;BMP280;46580;52.114;11.674;2022-12-05T07:09:00;101270.63;;;2.85
60731;BMP280;46580;52.114;11.674;2022-12-05T07:11:26;101271.53;;;2.84
60731;BMP280;46580;52.114;11.674;2022-12-05T07:13:51;101282.38;;;2.89
60731;BMP280;46580;52.114;11.674;2022-12-05T07:16:17;101275.63;;;2.88
60731;BMP280;46580;52.114;11.674;2022-12-05T07:18:42;101274.75;;;2.89
60731;BMP280;46580;52.114;11.674;2022-12-05T07:21:10;101280.72;;;2.88
60731;BMP280;46580;52.114;11.674;2022-12-05T07:23:37;101276.28;;;2.93
60731;BMP280;46580;52.114;11.674;2022-12-05T07:26:07;101279.69;;;2.92
60731;BMP280;46580;52.114;11.674;2022-12-05T07:28:33;101274.75;;;2.89
60731;BMP280;46580;52.114;11.674;2022-12-05T07:31:03;101279.69;;;2.92
60731;BMP280;46580;52.114;11.674;2022-12-05T07:33:29;101282.69;;;3.02
60731;BMP280;46580;52.114;11.674;2022-12-05T07:36:05;101278.56;;;3.21
60731;BMP280;46580;52.114;11.674;2022-12-05T07:38:31;101273.53;;;3.19
60731;BMP280;46580;52.114;11.674;2022-12-05T07:40:56;101286.44;;;3.15
60731;BMP280;46580;52.114;11.674;2022-12-05T07:43:22;101279.34;;;3.23
60731;BMP280;46580;52.114;11.674;2022-12-05T07:45:48;101277.31;;;3.31
60731;BMP280;46580;52.114;11.674;2022-12-05T07:48:14;101282.00;;;3.20
60731;BMP280;46580;52.114;11.674;2022-12-05T07:50:40;101278.81;;;3.15
60731;BMP280;46580;52.114;11.674;2022-12-05T07:53:06;101275.81;;;3.04
60731;BMP280;46580;52.114;11.674;2022-12-05T07:55:32;101276.78;;;3.02
60731;BMP280;46580;52.114;11.674;2022-12-05T07:57:58;101287.88;;;2.99
60731;BMP280;46580;52.114;11.674;2022-12-05T08:00:24;101279.31;;;3.02
60731;BMP280;46580;52.114;11.674;2022-12-05T08:02:49;101276.84;;;3.00
60731;BMP280;46580;52.114;11.674;2022-12-05T08:05:15;101281.03;;;3.01
60731;BMP280;46580;52.114;11.674;2022-12-05T08:07:41;101290.38;;;3.01
60731;BMP280;46580;52.114;11.674;2022-12-05T08:10:07;101277.66;;;3.01
60731;BMP280;46580;52.114;11.674;2022-12-05T08:12:32;101279.38;;;3.00
60731;BMP280;46580;52.114;11.674;2022-12-05T08:14:58;101292.91;;;3.01
60731;BMP280;46580;52.114;11.674;2022-12-05T08:17:23;101283.44;;;3.04
60731;BMP280;46580;52.114;11.674;2022-12-05T08:19:49;101284.13;;;3.09
60731;BMP280;46580;52.114;11.674;2022-12-05T08:22:14;101283.28;;;3.09
60731;BMP280;46580;52.114;11.674;2022-12-05T08:24:40;101286.84;;;3.26
60731;BMP280;46580;52.114;11.674;2022-12-05T08:27:05;101290.53;;;3.40
60731;BMP280;46580;52.114;11.674;2022-12-05T08:29:31;101287.94;;;3.41
60731;BMP280;46580;52.114;11.674;2022-12-05T08:31:56;101290.00;;;3.32
60731;BMP280;46580;52.114;11.674;2022-12-05T08:34:23;101296.41;;;3.42
60731;BMP280;46580;52.114;11.674;2022-12-05T08:36:48;101291.94;;;3.26
60731;BMP280;46580;52.114;11.674;2022-12-05T08:39:16;101289.53;;;3.23
60731;BMP280;46580;52.114;11.674;2022-12-05T08:41:42;101302.00;;;3.29
60731;BMP280;46580;52.114;11.674;2022-12-05T08:44:09;101300.53;;;3.23
60731;BMP280;46580;52.114;11.674;2022-12-05T08:46:40;101295.38;;;3.25
60731;BMP280;46580;52.114;11.674;2022-12-05T08:49:07;101299.03;;;3.39
60731;BMP280;46580;52.114;11.674;2022-12-05T08:51:33;101296.75;;;3.54
60731;BMP280;46580;52.114;11.674;2022-12-05T08:54:02;101299.59;;;3.68
60731;BMP280;46580;52.114;11.674;2022-12-05T08:56:28;101301.88;;;3.52
60731;BMP280;46580;52.114;11.674;2022-12-05T08:58:54;101299.22;;;3.76
60731;BMP280;46580;52.114;11.674;2022-12-05T09:01:21;101307.13;;;3.71
60731;BMP280;46580;52.114;11.674;2022-12-05T09:03:47;101300.97;;;3.55
60731;BMP280;46580;52.114;11.674;2022-12-05T09:06:13;101297.03;;;3.68
60731;BMP280;46580;52.114;11.674;2022-12-05T09:08:40;101304.38;;;3.54
60731;BMP280;46580;52.114;11.674;2022-12-05T09:11:10;101310.00;;;3.62
60731;BMP280;46580;52.114;11.674;2022-12-05T09:13:37;101311.00;;;3.58
60731;BMP280;46580;52.114;11.674;2022-12-05T09:16:11;101306.78;;;3.78
60731;BMP280;46580;52.114;11.674;2022-12-05T09:18:38;101311.72;;;3.61
60731;BMP280;46580;52.114;11.674;2022-12-05T09:21:05;101298.06;;;3.64
60731;BMP280;46580;52.114;11.674;2022-12-05T09:23:31;101303.38;;;3.58
60731;BMP280;46580;52.114;11.674;2022-12-05T09:25:56;101297.50;;;3.77
60731;BMP280;46580;52.114;11.674;2022-12-05T09:28:25;101295.75;;;3.77
60731;BMP280;46580;52.114;11.674;2022-12-05T09:31:12;101293.34;;;3.74
60731;BMP280;46580;52.114;11.674;2022-12-05T09:33:38;101299.72;;;3.84
60731;BMP280;46580;52.114;11.674;2022-12-05T09:36:19;101295.84;;;3.76
60731;BMP280;46580;52.114;11.674;2022-12-05T09:38:45;101304.38;;;3.75
60731;BMP280;46580;52.114;11.674;2022-12-05T09:47:00;101295.72;;;3.79
60731;BMP280;46580;52.114;11.674;2022-12-05T09:49:27;101299.09;;;3.79
60731;BMP280;46580;52.114;11.674;2022-12-05T09:51:55;101297.97;;;3.86
60731;BMP280;46580;52.114;11.674;2022-12-05T09:54:22;101298.78;;;3.87
60731;BMP280;46580;52.114;11.674;2022-12-05T09:56:50;101293.59;;;3.89
60731;BMP280;46580;52.114;11.674;2022-12-05T09:59:18;101293.19;;;3.98
60731;BMP280;46580;52.114;11.674;2022-12-05T10:02:03;101292.78;;;4.08
60731;BMP280;46580;52.114;11.674;2022-12-05T10:04:47;101287.78;;;3.86
60731;BMP280;46580;52.114;11.674;2022-12-05T10:07:31;101287.66;;;3.89
60731;BMP280;46580;52.114;11.674;2022-12-05T10:16:09;101276.84;;;4.04
60731;BMP280;46580;52.114;11.674;2022-12-05T10:18:40;101276.59;;;4.09
60731;BMP280;46580;52.114;11.674;2022-12-05T10:26:15;101283.72;;;4.02
60731;BMP280;46580;52.114;11.674;2022-12-05T10:29:00;101285.38;;;4.22
60731;BMP280;46580;52.114;11.674;2022-12-05T10:31:30;101280.41;;;4.39
60731;BMP280;46580;52.114;11.674;2022-12-05T10:34:02;101289.97;;;4.34
60731;BMP280;46580;52.114;11.674;2022-12-05T10:36:29;101287.09;;;4.22
60731;BMP280;46580;52.114;11.674;2022-12-05T10:38:55;101286.91;;;4.26
60731;BMP280;46580;52.114;11.674;2022-12-05T10:41:21;101290.75;;;4.16
60731;BMP280;46580;52.114;11.674;2022-12-05T10:43:47;101289.97;;;4.14
60731;BMP280;46580;52.114;11.674;2022-12-05T10:46:14;101294.03;;;4.18
60731;BMP280;46580;52.114;11.674;2022-12-05T10:48:41;101290.13;;;4.31
60731;BMP280;46580;52.114;11.674;2022-12-05T10:51:12;101291.44;;;4.20
60731;BMP280;46580;52.114;11.674;2022-12-05T10:53:43;101300.16;;;4.14
60731;BMP280;46580;52.114;11.674;2022-12-05T10:56:36;101293.47;;;4.31
60731;BMP280;46580;52.114;11.674;2022-12-05T10:59:02;101296.00;;;4.12
60731;BMP280;46580;52.114;11.674;2022-12-05T11:01:29;101299.53;;;4.09
60731;BMP280;46580;52.114;11.674;2022-12-05T11:04:00;101300.94;;;4.16
60731;BMP280;46580;52.114;11.674;2022-12-05T11:06:28;101301.75;;;4.17
60731;BMP280;46580;52.114;11.674;2022-12-05T11:08:57;101298.13;;;4.42
60731;BMP280;46580;52.114;11.674;2022-12-05T11:11:27;101293.91;;;4.21
60731;BMP280;46580;52.114;11.674;2022-12-05T11:14:02;101293.03;;;4.22
60731;BMP280;46580;52.114;11.674;2022-12-05T11:16:36;101282.97;;;4.19
60731;BMP280;46580;52.114;11.674;2022-12-05T11:19:38;101278.25;;;4.10
60731;BMP280;46580;52.114;11.674;2022-12-05T11:22:04;101282.78;;;4.24
60731;BMP280;46580;52.114;11.674;2022-12-05T11:24:34;101289.13;;;4.14
60731;BMP280;46580;52.114;11.674;2022-12-05T11:27:19;101286.59;;;4.14
60731;BMP280;46580;52.114;11.674;2022-12-05T11:30:08;101290.66;;;4.18
60731;BMP280;46580;52.114;11.674;2022-12-05T11:32:39;101287.94;;;4.22
60731;BMP280;46580;52.114;11.674;2022-12-05T11:35:21;101284.25;;;4.29
60731;BMP280;46580;52.114;11.674;2022-12-05T11:38:02;101283.78;;;4.20
60731;BMP280;46580;52.114;11.674;2022-12-05T11:55:33;101279.25;;;4.45
60731;BMP280;46580;52.114;11.674;2022-12-05T12:00:56;101278.22;;;4.49
60731;BMP280;46580;52.114;11.674;2022-12-05T12:06:26;101280.38;;;4.58
60731;BMP280;46580;52.114;11.674;2022-12-05T12:09:15;101272.53;;;4.63
60731;BMP280;46580;52.114;11.674;2022-12-05T12:14:26;101276.94;;;4.59
60731;BMP280;46580;52.114;11.674;2022-12-05T12:17:18;101279.63;;;4.56
60731;BMP280;46580;52.114;11.674;2022-12-05T12:19:58;101286.38;;;4.57
60731;BMP280;46580;52.114;11.674;2022-12-05T12:22:42;101287.59;;;4.49
60731;BMP280;46580;52.114;11.674;2022-12-05T12:25:26;101286.59;;;4.33
60731;BMP280;46580;52.114;11.674;2022-12-05T12:36:01;101292.81;;;4.46
60731;BMP280;46580;52.114;11.674;2022-12-05T12:47:41;101275.06;;;4.06
60731;BMP280;46580;52.114;11.674;2022-12-05T12:50:30;101268.28;;;4.05
60731;BMP280;46580;52.114;11.674;2022-12-05T13:04:01;101262.06;;;3.92
60731;BMP280;46580;52.114;11.674;2022-12-05T13:06:57;101259.59;;;3.90
60731;BMP280;46580;52.114;11.674;2022-12-05T13:09:32;101260.53;;;3.88
60731;BMP280;46580;52.114;11.674;2022-12-05T13:12:04;101261.53;;;3.84
60731;BMP280;46580;52.114;11.674;2022-12-05T13:14:33;101256.63;;;3.80
60731;BMP280;46580;52.114;11.674;2022-12-05T13:17:00;101259.97;;;3.82
60731;BMP280;46580;52.114;11.674;2022-12-05T13:19:45;101265.88;;;3.82
60731;BMP280;46580;52.114;11.674;2022-12-05T13:22:12;101257.47;;;3.80
60731;BMP280;46580;52.114;11.674;2022-12-05T13:24:39;101249.84;;;3.80
60731;BMP280;46580;52.114;11.674;2022-12-05T13:27:08;101249.19;;;3.75
60731;BMP280;46580;52.114;11.674;2022-12-05T13:29:46;101255.44;;;3.69
60731;BMP280;46580;52.114;11.674;2022-12-05T13:32:38;101260.63;;;3.66
60731;BMP280;46580;52.114;11.674;2022-12-05T13:35:27;101258.31;;;3.60
60731;BMP280;46580;52.114;11.674;2022-12-05T13:38:42;101260.00;;;3.61
60731;BMP280;46580;52.114;11.674;2022-12-05T13:41:43;101255.00;;;3.58
60731;BMP280;46580;52.114;11.674;2022-12-05T13:44:46;101265.28;;;3.56
60731;BMP280;46580;52.114;11.674;2022-12-05T13:52:39;101262.31;;;3.46
60731;BMP280;46580;52.114;11.674;2022-12-05T13:55:35;101277.28;;;3.53
60731;BMP280;46580;52.114;11.674;2022-12-05T13:58:02;101262.94;;;3.51
60731;BMP280;46580;52.114;11.674;2022-12-05T14:00:47;101266.56;;;3.45
60731;BMP280;46580;52.114;11.674;2022-12-05T14:05:49;101285.19;;;3.46
60731;BMP280;46580;52.114;11.674;2022-12-05T14:15:47;101289.69;;;3.39
60731;BMP280;46580;52.114;11.674;2022-12-05T14:27:32;101294.09;;;3.36
60731;BMP280;46580;52.114;11.674;2022-12-05T14:30:56;101298.22;;;3.38
60731;BMP280;46580;52.114;11.674;2022-12-05T14:33:16;101302.47;;;3.38
60731;BMP280;46580;52.114;11.674;2022-12-05T14:35:49;101296.03;;;3.30
60731;BMP280;46580;52.114;11.674;2022-12-05T14:38:26;101303.44;;;3.35
60731;BMP280;46580;52.114;11.674;2022-12-05T14:40:53;101307.94;;;3.29
60731;BMP280;46580;52.114;11.674;2022-12-05T14:43:26;101306.22;;;3.30
60731;BMP280;46580;52.114;11.674;2022-12-05T14:45:58;101303.78;;;3.27
60731;BMP280;46580;52.114;11.674;2022-12-05T14:48:35;101307.19;;;3.26
60731;BMP280;46580;52.114;11.674;2022-12-05T14:54:03;101304.06;;;3.19
60731;BMP280;46580;52.114;11.674;2022-12-05T14:56:31;101304.00;;;3.21
60731;BMP280;46580;52.114;11.674;2022-12-05T14:59:14;101303.06;;;3.23
60731;BMP280;46580;52.114;11.674;2022-12-05T15:01:45;101301.47;;;3.21
60731;BMP280;46580;52.114;11.674;2022-12-05T15:06:54;101301.41;;;3.22
60731;BMP280;46580;52.114;11.674;2022-12-05T15:09:45;101300.59;;;3.22
60731;BMP280;46580;52.114;11.674;2022-12-05T15:12:26;101306.50;;;3.22
60731;BMP280;46580;52.114;11.674;2022-12-05T15:14:59;101299.81;;;3.20
60731;BMP280;46580;52.114;11.674;2022-12-05T15:17:34;101311.19;;;3.10
60731;BMP280;46580;52.114;11.674;2022-12-05T15:20:07;101314.50;;;3.12
60731;BMP280;46580;52.114;11.674;2022-12-05T15:22:37;101313.72;;;3.10
60731;BMP280;46580;52.114;11.674;2022-12-05T15:27:51;101312.09;;;3.09
60731;BMP280;46580;52.114;11.674;2022-12-05T15:30:19;101314.75;;;3.06
60731;BMP280;46580;52.114;11.674;2022-12-05T15:32:45;101315.56;;;3.07
60731;BMP280;46580;52.114;11.674;2022-12-05T15:35:12;101318.28;;;3.02
60731;BMP280;46580;52.114;11.674;2022-12-05T15:37:57;101314.09;;;3.01
60731;BMP280;46580;52.114;11.674;2022-12-05T15:40:25;101324.22;;;3.03
60731;BMP280;46580;52.114;11.674;2022-12-05T15:46:17;101322.56;;;3.02
60731;BMP280;46580;52.114;11.674;2022-12-05T15:48:58;101323.38;;;3.02
60731;BMP280;46580;52.114;11.674;2022-12-05T15:51:35;101319.16;;;3.01
60731;BMP280;46580;52.114;11.674;2022-12-05T15:54:27;101319.28;;;2.98
60731;BMP280;46580;52.114;11.674;2022-12-05T15:59:30;101327.03;;;2.96
60731;BMP280;46580;52.114;11.674;2022-12-05T16:02:24;101333.75;;;2.96
60731;BMP280;46580;52.114;11.674;2022-12-05T16:04:55;101324.53;;;2.94
60731;BMP280;46580;52.114;11.674;2022-12-05T16:07:23;101322.78;;;2.96
60731;BMP280;46580;52.114;11.674;2022-12-05T16:09:55;101330.41;;;2.96
60731;BMP280;46580;52.114;11.674;2022-12-05T16:12:24;101327.16;;;2.91
60731;BMP280;46580;52.114;11.674;2022-12-05T16:14:57;101331.56;;;2.88
60731;BMP280;46580;52.114;11.674;2022-12-05T16:17:25;101328.19;;;2.87
60731;BMP280;46580;52.114;11.674;2022-12-05T16:19:50;101324.81;;;2.87
60731;BMP280;46580;52.114;11.674;2022-12-05T16:22:20;101327.34;;;2.87
60731;BMP280;46580;52.114;11.674;2022-12-05T16:25:16;101323.97;;;2.86
60731;BMP280;46580;52.114;11.674;2022-12-05T16:27:42;101316.72;;;2.98
60731;BMP280;46580;52.114;11.674;2022-12-05T16:30:21;101316.03;;;2.95
60731;BMP280;46580;52.114;11.674;2022-12-05T16:32:49;101312.53;;;2.97
60731;BMP280;46580;52.114;11.674;2022-12-05T16:35:43;101328.56;;;2.99
60731;BMP280;46580;52.114;11.674;2022-12-05T16:45:52;101320.44;;;3.13
60731;BMP280;46580;52.114;11.674;2022-12-05T16:51:14;101323.81;;;3.13
60731;BMP280;46580;52.114;11.674;2022-12-05T16:53:48;101321.03;;;3.19
60731;BMP280;46580;52.114;11.674;2022-12-05T16:56:17;101317.50;;;3.23
60731;BMP280;46580;52.114;11.674;2022-12-05T16:58:44;101318.16;;;3.28